createdAt,value
2018-09-20T00:02:03.671Z,65.63
2018-09-20T00:04:31.909Z,66.95
2018-09-20T00:07:00.134Z,66.61
2018-09-20T00:09:28.350Z,67.57
2018-09-20T00:11:56.578Z,66.89
2018-09-20T00:14:24.813Z,68.59
2018-09-20T00:16:53.046Z,68.22
2018-09-20T00:19:21.279Z,68.12
2018-09-20T00:21:49.503Z,68.97
2018-09-20T00:24:17.697Z,68.35
2018-09-20T00:26:45.947Z,68.93
2018-09-20T00:29:14.142Z,70.39
2018-09-20T00:31:42.353Z,69.59
2018-09-20T00:34:10.574Z,72.07
2018-09-20T00:36:38.820Z,71.56
2018-09-20T00:39:09.848Z,71.95
2018-09-20T00:41:38.098Z,71.77
2018-09-20T00:44:07.146Z,72.01
2018-09-20T00:46:35.350Z,70.68
2018-09-20T00:49:03.617Z,72.37
2018-09-20T00:51:31.838Z,72.35
2018-09-20T00:54:00.053Z,72.06
2018-09-20T00:56:28.272Z,73.02
2018-09-20T00:58:56.581Z,72.22
2018-09-20T01:01:25.061Z,72.02
2018-09-20T01:03:53.426Z,72.22
2018-09-20T01:06:22.257Z,72.56
2018-09-20T01:08:50.526Z,71.62
2018-09-20T01:11:18.768Z,71.74
2018-09-20T01:13:47.055Z,72.79
2018-09-20T01:16:15.557Z,72.61
2018-09-20T01:18:43.798Z,73.51
2018-09-20T01:21:13.085Z,73.55
2018-09-20T01:23:41.301Z,73.50
2018-09-20T01:26:09.521Z,73.53
2018-09-20T01:28:37.734Z,73.61
2018-09-20T01:31:05.971Z,73.54
2018-09-20T01:33:34.207Z,73.44
2018-09-20T01:36:02.427Z,74.41
2018-09-20T01:38:30.657Z,75.33
2018-09-20T01:40:58.862Z,73.77
2018-09-20T01:43:27.087Z,74.32
2018-09-20T01:45:55.322Z,73.11
2018-09-20T01:48:23.538Z,74.51
2018-09-20T01:50:51.823Z,75.06
2018-09-20T01:53:20.053Z,73.80
2018-09-20T01:55:48.287Z,74.14
2018-09-20T01:58:16.509Z,74.12
2018-09-20T02:00:44.736Z,74.31
2018-09-20T02:03:12.970Z,75.62
2018-09-20T02:05:41.200Z,74.09
2018-09-20T02:08:09.406Z,74.73
2018-09-20T02:10:37.623Z,75.83
2018-09-20T02:13:05.870Z,75.37
2018-09-20T02:15:34.121Z,74.92
2018-09-20T02:18:02.391Z,75.38
2018-09-20T02:20:30.837Z,75.08
2018-09-20T02:22:59.085Z,75.79
2018-09-20T02:25:27.342Z,75.05
2018-09-20T02:27:55.645Z,75.75
2018-09-20T02:30:23.883Z,75.64
2018-09-20T02:32:52.092Z,74.80
2018-09-20T02:35:20.422Z,75.37
2018-09-20T02:37:48.638Z,74.83
2018-09-20T02:40:16.876Z,75.50
2018-09-20T02:42:45.098Z,75.29
2018-09-20T02:45:13.314Z,75.34
2018-09-20T02:47:41.530Z,75.56
2018-09-20T02:50:09.757Z,75.41
2018-09-20T02:52:37.976Z,75.96
2018-09-20T02:55:06.233Z,75.86
2018-09-20T02:57:34.429Z,76.78
2018-09-20T03:00:02.655Z,76.28
2018-09-20T03:02:30.874Z,75.53
2018-09-20T03:04:59.106Z,75.80
2018-09-20T03:07:27.315Z,76.06
2018-09-20T03:09:55.522Z,76.51
2018-09-20T03:12:23.742Z,76.82
2018-09-20T03:14:51.971Z,77.14
2018-09-20T03:17:20.181Z,76.67
2018-09-20T03:19:48.827Z,75.73
2018-09-20T03:22:17.041Z,76.46
2018-09-20T03:24:45.257Z,76.64
2018-09-20T03:27:13.482Z,76.77
2018-09-20T03:29:41.711Z,76.25
2018-09-20T03:32:09.927Z,75.51
2018-09-20T03:34:38.143Z,76.44
2018-09-20T03:37:06.407Z,76.95
2018-09-20T03:39:34.611Z,76.79
2018-09-20T03:42:02.847Z,76.75
2018-09-20T03:44:31.062Z,77.94
2018-09-20T03:46:59.298Z,76.67
2018-09-20T03:49:27.514Z,77.24
2018-09-20T03:51:55.719Z,77.35
2018-09-20T03:54:24.025Z,79.81
2018-09-20T03:56:52.453Z,79.96
2018-09-20T03:59:20.726Z,78.62
2018-09-20T04:01:48.926Z,77.97
2018-09-20T04:04:17.146Z,78.68
2018-09-20T04:06:45.361Z,77.78
2018-09-20T04:09:13.594Z,78.50
2018-09-20T04:11:41.858Z,78.20
2018-09-20T04:14:10.326Z,78.38
2018-09-20T04:16:38.569Z,77.63
2018-09-20T04:19:06.834Z,77.62
2018-09-20T04:21:35.969Z,77.26
2018-09-20T04:24:06.690Z,77.36
2018-09-20T04:26:34.930Z,78.28
2018-09-20T04:29:03.211Z,77.13
2018-09-20T04:31:31.877Z,78.49
2018-09-20T04:34:01.006Z,79.64
2018-09-20T04:36:29.701Z,79.01
2018-09-20T04:38:57.926Z,78.37
2018-09-20T04:41:27.278Z,78.46
2018-09-20T04:43:55.493Z,77.80
2018-09-20T04:46:23.714Z,77.66
2018-09-20T04:48:51.931Z,77.48
2018-09-20T04:51:20.689Z,77.74
2018-09-20T04:53:48.898Z,76.99
2018-09-20T04:56:17.106Z,77.59
2018-09-20T04:58:45.340Z,77.90
2018-09-20T05:01:13.546Z,77.46
2018-09-20T05:03:41.766Z,77.63
2018-09-20T05:06:09.984Z,77.87
2018-09-20T05:08:38.193Z,77.62
2018-09-20T05:11:06.410Z,80.04
2018-09-20T05:13:34.645Z,81.42
2018-09-20T05:16:02.882Z,80.64
2018-09-20T05:18:31.103Z,79.80
2018-09-20T05:20:59.313Z,79.94
2018-09-20T05:23:27.537Z,80.74
2018-09-20T05:25:55.829Z,81.08
2018-09-20T05:28:24.119Z,80.92
2018-09-20T05:30:52.335Z,80.53
2018-09-20T05:33:20.654Z,80.29
2018-09-20T05:35:48.828Z,79.59
2018-09-20T05:38:17.021Z,80.57
2018-09-20T05:40:45.314Z,80.49
2018-09-20T05:43:13.562Z,79.18
2018-09-20T05:45:41.790Z,80.21
2018-09-20T05:48:11.095Z,79.37
2018-09-20T05:50:39.369Z,78.75
2018-09-20T05:53:07.518Z,79.42
2018-09-20T05:55:35.887Z,79.69
2018-09-20T05:58:04.106Z,79.42
2018-09-20T06:00:32.363Z,79.84
2018-09-20T06:03:00.602Z,78.76
2018-09-20T06:05:29.968Z,78.70
2018-09-20T06:07:58.133Z,78.56
2018-09-20T06:10:26.345Z,78.82
2018-09-20T06:12:54.661Z,78.81
2018-09-20T06:15:22.883Z,77.65
2018-09-20T06:17:51.085Z,77.77
2018-09-20T06:20:19.730Z,77.53
2018-09-20T06:22:47.942Z,77.60
2018-09-20T06:25:16.175Z,77.28
2018-09-20T06:27:44.558Z,76.18
2018-09-20T06:30:12.720Z,76.13
2018-09-20T06:32:40.970Z,75.74
2018-09-20T06:35:09.183Z,74.80
2018-09-20T06:37:37.406Z,74.71
2018-09-20T06:40:05.856Z,74.35
2018-09-20T06:42:34.070Z,73.31
2018-09-20T06:45:02.293Z,72.14
2018-09-20T06:47:30.517Z,71.88
2018-09-20T06:49:58.730Z,72.48
2018-09-20T06:52:26.967Z,72.80
2018-09-20T06:54:55.169Z,72.22
2018-09-20T06:57:23.383Z,70.42
2018-09-20T06:59:51.593Z,70.59
2018-09-20T07:02:19.805Z,69.63
2018-09-20T07:04:48.012Z,69.98
2018-09-20T07:07:16.238Z,68.21
2018-09-20T07:09:44.450Z,69.22
2018-09-20T07:12:12.668Z,68.50
2018-09-20T07:14:40.869Z,66.62
2018-09-20T07:17:09.091Z,67.47
2018-09-20T07:19:37.329Z,66.80
2018-09-20T07:22:05.541Z,66.65
2018-09-20T07:24:33.782Z,65.20
2018-09-20T07:27:01.990Z,64.33
2018-09-20T07:29:30.224Z,65.91
2018-09-20T07:31:58.437Z,64.56
2018-09-20T07:34:26.649Z,63.32
2018-09-20T07:36:54.866Z,62.75
2018-09-20T07:39:23.082Z,61.93
2018-09-20T07:41:51.298Z,61.79
2018-09-20T07:44:19.514Z,61.39
2018-09-20T07:46:47.727Z,60.32
2018-09-20T07:49:15.981Z,59.35
2018-09-20T07:51:44.198Z,59.45
2018-09-20T07:54:12.418Z,59.34
2018-09-20T07:56:40.658Z,58.58
2018-09-20T07:59:08.851Z,58.04
2018-09-20T08:01:37.155Z,56.02
2018-09-20T08:04:05.305Z,54.02
2018-09-20T08:06:33.520Z,51.20
2018-09-20T08:09:01.766Z,53.37
2018-09-20T08:11:30.053Z,54.86
2018-09-20T08:13:58.281Z,52.73
2018-09-20T08:16:26.562Z,52.28
2018-09-20T08:18:54.773Z,51.51
2018-09-20T08:21:23.030Z,48.58
2018-09-20T08:23:51.209Z,49.71
2018-09-20T08:26:19.423Z,48.23
2018-09-20T08:28:47.627Z,47.66
2018-09-20T08:31:15.857Z,48.05
2018-09-20T08:33:44.072Z,47.55
2018-09-20T08:36:12.314Z,48.42
2018-09-20T08:38:40.530Z,48.27
2018-09-20T08:41:08.753Z,48.19
2018-09-20T08:43:36.947Z,49.55
2018-09-20T08:46:05.189Z,47.64
2018-09-20T08:48:33.423Z,48.28
2018-09-20T08:51:01.688Z,50.02
2018-09-20T08:53:29.890Z,50.55
2018-09-20T08:55:58.101Z,49.62
2018-09-20T08:58:26.350Z,50.50
2018-09-20T09:00:54.565Z,49.97
2018-09-20T09:03:22.785Z,49.33
2018-09-20T09:05:50.989Z,49.32
2018-09-20T09:08:19.226Z,49.75
2018-09-20T09:10:47.439Z,50.17
2018-09-20T09:13:15.658Z,51.09
2018-09-20T09:15:43.873Z,50.68
2018-09-20T09:18:12.090Z,51.12
2018-09-20T09:20:40.343Z,50.44
2018-09-20T09:23:08.567Z,51.01
2018-09-20T09:25:36.773Z,50.22
2018-09-20T09:28:05.425Z,50.21
2018-09-20T09:30:33.639Z,49.20
2018-09-20T09:33:01.863Z,49.86
2018-09-20T09:35:30.098Z,49.21
2018-09-20T09:37:58.343Z,48.80
2018-09-20T09:40:26.595Z,49.76
2018-09-20T09:42:54.803Z,49.37
2018-09-20T09:45:23.002Z,49.81
2018-09-20T09:47:51.213Z,47.76
2018-09-20T09:50:19.434Z,48.67
2018-09-20T09:52:47.754Z,49.46
2018-09-20T09:55:15.989Z,48.70
2018-09-20T09:57:47.498Z,49.32
2018-09-20T10:00:15.713Z,49.33
2018-09-20T10:02:43.921Z,49.13
2018-09-20T10:05:12.152Z,49.51
2018-09-20T10:07:40.382Z,48.50
2018-09-20T10:10:08.598Z,48.93
2018-09-20T10:12:36.841Z,48.81
2018-09-20T10:15:05.210Z,48.92
2018-09-20T10:17:33.441Z,48.22
2018-09-20T10:20:01.709Z,48.20
2018-09-20T10:22:30.205Z,48.19
2018-09-20T10:24:58.434Z,47.50
2018-09-20T10:27:26.682Z,46.20
2018-09-20T10:29:54.904Z,46.47
2018-09-20T10:32:23.146Z,44.89
2018-09-20T10:34:51.368Z,45.31
2018-09-20T10:37:19.590Z,44.62
2018-09-20T10:39:47.811Z,44.31
2018-09-20T10:42:16.055Z,45.00
2018-09-20T10:44:44.270Z,44.92
2018-09-20T10:47:12.631Z,44.32
2018-09-20T10:49:40.803Z,44.40
2018-09-20T10:52:09.073Z,44.06
2018-09-20T10:54:37.634Z,44.62
2018-09-20T10:57:05.806Z,43.91
2018-09-20T10:59:34.042Z,42.92
2018-09-20T11:02:02.267Z,43.45
2018-09-20T11:04:30.524Z,42.85
2018-09-20T11:06:58.761Z,42.23
2018-09-20T11:09:27.013Z,42.54
2018-09-20T11:11:55.234Z,42.19
2018-09-20T11:14:23.454Z,41.86
2018-09-20T11:16:51.704Z,41.96
2018-09-20T11:19:19.943Z,41.78
2018-09-20T11:21:48.196Z,41.70
2018-09-20T11:24:16.433Z,41.55
2018-09-20T11:26:44.668Z,42.42
2018-09-20T11:29:12.964Z,41.72
2018-09-20T11:31:41.189Z,41.94
2018-09-20T11:34:09.654Z,41.65
2018-09-20T11:36:37.893Z,41.76
2018-09-20T11:39:08.679Z,42.16
2018-09-20T11:41:37.163Z,41.86
2018-09-20T11:44:05.405Z,41.83
2018-09-20T11:46:33.715Z,41.54
2018-09-20T11:49:01.955Z,41.49
2018-09-20T11:51:30.258Z,40.61
2018-09-20T11:53:58.582Z,40.93
2018-09-20T11:56:26.807Z,40.81
2018-09-20T11:58:55.093Z,40.44
2018-09-20T12:01:23.339Z,39.23
2018-09-20T12:03:51.576Z,40.21
2018-09-20T12:06:19.822Z,38.64
2018-09-20T12:08:48.034Z,39.05
2018-09-20T12:11:16.581Z,39.83
2018-09-20T12:13:44.830Z,39.27
2018-09-20T12:16:13.079Z,38.98
2018-09-20T12:18:41.305Z,39.80
2018-09-20T12:21:09.539Z,39.59
2018-09-20T12:23:37.805Z,38.91
2018-09-20T12:26:06.158Z,39.00
2018-09-20T12:28:34.455Z,38.61
2018-09-20T12:31:02.720Z,37.43
2018-09-20T12:33:32.036Z,36.29
2018-09-20T12:36:01.432Z,37.69
2018-09-20T12:38:29.624Z,37.64
2018-09-20T12:40:57.894Z,37.63
2018-09-20T12:43:26.218Z,36.96
2018-09-20T12:45:56.535Z,36.57
2018-09-20T12:48:24.851Z,36.55
2018-09-20T12:50:53.024Z,36.69
2018-09-20T12:53:21.278Z,36.22
2018-09-20T12:55:49.534Z,36.62
2018-09-20T12:58:17.826Z,36.11
2018-09-20T13:00:46.225Z,35.00
2018-09-20T13:03:14.483Z,35.39
2018-09-20T13:05:42.755Z,35.41
2018-09-20T13:08:13.310Z,35.67
2018-09-20T13:10:41.606Z,35.53
2018-09-20T13:13:09.870Z,35.70
2018-09-20T13:15:38.086Z,34.65
2018-09-20T13:18:06.349Z,34.41
2018-09-20T13:20:34.596Z,34.39
2018-09-20T13:23:02.879Z,34.54
2018-09-20T13:25:31.137Z,34.42
2018-09-20T13:27:59.355Z,34.21
2018-09-20T13:30:27.625Z,33.50
2018-09-20T13:32:55.847Z,33.47
2018-09-20T13:35:24.115Z,32.78
2018-09-20T13:37:52.350Z,32.35
2018-09-20T13:40:20.646Z,32.49
2018-09-20T13:42:48.873Z,32.13
2018-09-20T13:45:17.143Z,33.84
2018-09-20T13:47:45.363Z,32.82
2018-09-20T13:50:13.654Z,32.81
2018-09-20T13:52:41.962Z,32.61
2018-09-20T13:55:10.201Z,32.80
2018-09-20T13:57:38.448Z,33.17
2018-09-20T14:00:07.392Z,32.76
2018-09-20T14:02:35.638Z,32.34
2018-09-20T14:05:03.934Z,32.17
2018-09-20T14:07:32.191Z,31.79
2018-09-20T14:10:00.452Z,31.78
2018-09-20T14:12:28.727Z,32.08
2018-09-20T14:14:56.966Z,31.76
2018-09-20T14:17:25.237Z,30.56
2018-09-20T14:19:55.528Z,30.51
2018-09-20T14:22:23.753Z,30.74
2018-09-20T14:24:52.020Z,31.27
2018-09-20T14:27:20.286Z,31.46
2018-09-20T14:29:48.518Z,31.64
2018-09-20T14:32:16.790Z,31.99
2018-09-20T14:34:45.085Z,31.97
2018-09-20T14:37:13.370Z,31.05
2018-09-20T14:39:41.574Z,29.58
2018-09-20T14:42:09.783Z,30.18
2018-09-20T14:44:38.014Z,31.32
2018-09-20T14:47:06.241Z,31.33
2018-09-20T14:49:34.489Z,31.12
2018-09-20T14:52:02.731Z,30.38
2018-09-20T14:54:30.962Z,31.51
2018-09-20T14:56:59.299Z,30.58
2018-09-20T14:59:27.526Z,31.52
2018-09-20T15:01:55.745Z,31.34
2018-09-20T15:04:23.969Z,30.45
2018-09-20T15:06:52.177Z,30.76
2018-09-20T15:09:20.403Z,30.95
2018-09-20T15:11:48.651Z,31.07
2018-09-20T15:14:16.893Z,30.96
2018-09-20T15:16:45.139Z,29.99
2018-09-20T15:19:13.366Z,30.01
2018-09-20T15:21:41.626Z,31.08
2018-09-20T15:24:09.842Z,29.83
2018-09-20T15:26:38.085Z,29.28
2018-09-20T15:29:06.353Z,29.93
2018-09-20T15:31:34.605Z,30.05
2018-09-20T15:34:02.868Z,30.69
2018-09-20T15:36:31.100Z,30.76
2018-09-20T15:38:59.323Z,30.09
2018-09-20T15:41:27.593Z,30.04
2018-09-20T15:43:55.838Z,31.46
2018-09-20T15:46:24.054Z,31.01
2018-09-20T15:48:52.288Z,30.29
2018-09-20T15:51:20.493Z,30.68
2018-09-20T15:53:48.717Z,30.61
2018-09-20T15:56:16.930Z,30.00
2018-09-20T15:58:45.166Z,30.45
2018-09-20T16:01:13.850Z,30.78
2018-09-20T16:03:43.342Z,30.73
2018-09-20T16:06:11.636Z,29.79
2018-09-20T16:08:40.679Z,30.60
2018-09-20T16:11:08.918Z,30.76
2018-09-20T16:13:37.208Z,31.55
2018-09-20T16:16:05.430Z,31.89
2018-09-20T16:18:33.734Z,32.14
2018-09-20T16:21:01.974Z,32.72
2018-09-20T16:23:30.341Z,32.26
2018-09-20T16:25:58.534Z,32.13
2018-09-20T16:29:05.373Z,32.70
2018-09-20T16:31:46.216Z,32.62
2018-09-20T16:34:26.404Z,33.73
2018-09-20T16:37:03.591Z,32.79
2018-09-20T16:39:35.915Z,33.92
2018-09-20T16:42:04.838Z,34.03
2018-09-20T16:44:33.086Z,33.54
2018-09-20T16:47:01.323Z,33.16
2018-09-20T16:49:29.554Z,33.82
2018-09-20T16:51:57.801Z,34.54
2018-09-20T16:54:26.028Z,35.10
2018-09-20T16:56:54.318Z,35.16
2018-09-20T16:59:22.544Z,35.13
2018-09-20T17:01:51.354Z,34.29
2018-09-20T17:04:19.586Z,34.86
2018-09-20T17:06:47.826Z,35.52
2018-09-20T17:09:16.090Z,35.13
2018-09-20T17:11:44.309Z,35.01
2018-09-20T17:14:12.538Z,34.90
2018-09-20T17:16:40.897Z,35.29
2018-09-20T17:19:09.159Z,34.51
2018-09-20T17:21:37.379Z,35.40
2018-09-20T17:24:05.641Z,35.35
2018-09-20T17:26:33.867Z,35.08
2018-09-20T17:29:02.116Z,35.09
2018-09-20T17:31:33.767Z,35.89
2018-09-20T17:34:02.294Z,36.00
2018-09-20T17:36:30.906Z,35.57
2018-09-20T17:39:00.118Z,35.73
2018-09-20T17:41:30.945Z,36.89
2018-09-20T17:44:03.154Z,35.95
2018-09-20T17:46:31.390Z,36.33
2018-09-20T17:48:59.625Z,37.38
2018-09-20T17:51:28.890Z,36.88
2018-09-20T17:53:58.940Z,37.62
2018-09-20T17:56:30.082Z,37.83
2018-09-20T17:58:59.848Z,37.83
2018-09-20T18:01:29.896Z,38.27
2018-09-20T18:04:00.826Z,37.38
2018-09-20T18:06:30.646Z,37.72
2018-09-20T18:09:00.502Z,38.76
2018-09-20T18:11:31.080Z,37.99
2018-09-20T18:13:59.323Z,38.90
2018-09-20T18:16:27.638Z,38.33
2018-09-20T18:18:55.975Z,39.25
2018-09-20T18:21:24.206Z,39.46
2018-09-20T18:23:52.461Z,39.75
2018-09-20T18:26:20.702Z,39.78
2018-09-20T18:28:48.906Z,40.45
2018-09-20T18:31:17.125Z,40.45
2018-09-20T18:33:45.350Z,41.09
2018-09-20T18:36:13.587Z,40.64
2018-09-20T18:38:41.867Z,41.61
2018-09-20T18:41:10.138Z,40.69
2018-09-20T18:43:38.367Z,40.58
2018-09-20T18:46:06.614Z,41.34
2018-09-20T18:48:34.872Z,40.55
2018-09-20T18:51:03.097Z,41.10
2018-09-20T18:53:31.331Z,42.14
2018-09-20T18:55:59.599Z,42.04
2018-09-20T18:58:27.825Z,42.20
2018-09-20T19:00:56.030Z,43.01
2018-09-20T19:03:24.586Z,43.68
2018-09-20T19:05:52.836Z,43.23
2018-09-20T19:08:21.326Z,43.68
2018-09-20T19:10:49.665Z,44.21
2018-09-20T19:13:17.882Z,43.40
2018-09-20T19:15:46.103Z,43.41
2018-09-20T19:18:14.430Z,43.75
2018-09-20T19:20:42.669Z,44.39
2018-09-20T19:23:10.910Z,44.26
2018-09-20T19:25:39.143Z,45.36
2018-09-20T19:28:07.354Z,44.14
2018-09-20T19:30:35.586Z,44.87
2018-09-20T19:33:03.812Z,44.76
2018-09-20T19:35:32.321Z,45.47
2018-09-20T19:38:00.571Z,45.39
2018-09-20T19:40:28.798Z,44.98
2018-09-20T19:42:57.017Z,45.57
2018-09-20T19:45:25.247Z,45.19
2018-09-20T19:47:53.473Z,46.17
2018-09-20T19:50:21.691Z,45.59
2018-09-20T19:52:49.912Z,44.90
2018-09-20T19:55:18.130Z,46.08
2018-09-20T19:57:46.624Z,45.63
2018-09-20T20:00:14.906Z,45.15
2018-09-20T20:02:43.109Z,46.00
2018-09-20T20:05:11.449Z,45.52
2018-09-20T20:07:39.761Z,46.20
2018-09-20T20:10:09.060Z,46.15
2018-09-20T20:12:41.665Z,46.89
2018-09-20T20:15:10.942Z,46.41
2018-09-20T20:17:39.228Z,47.01
2018-09-20T20:20:07.780Z,46.94
2018-09-20T20:22:36.486Z,47.64
2018-09-20T20:25:04.738Z,47.39
2018-09-20T20:28:05.912Z,46.64
2018-09-20T20:30:34.159Z,46.57
2018-09-20T20:33:02.729Z,47.59
2018-09-20T20:35:31.119Z,46.42
2018-09-20T20:37:59.354Z,47.36
2018-09-20T20:40:27.623Z,46.74
2018-09-20T20:42:55.845Z,47.07
2018-09-20T20:45:24.107Z,46.61
2018-09-20T20:47:52.337Z,46.92
2018-09-20T20:50:20.571Z,47.28
2018-09-20T20:52:48.854Z,48.31
2018-09-20T20:58:08.033Z,48.66
2018-09-20T21:00:36.249Z,48.19
2018-09-20T21:03:04.489Z,48.35
2018-09-20T21:05:32.718Z,48.20
2018-09-20T21:08:00.941Z,48.43
2018-09-20T21:10:29.229Z,47.70
2018-09-20T21:12:57.462Z,48.57
2018-09-20T21:15:25.700Z,48.52
2018-09-20T21:17:53.998Z,48.56
2018-09-20T21:20:22.233Z,48.97
2018-09-20T21:22:50.454Z,48.86
2018-09-20T21:25:18.699Z,48.76
2018-09-20T21:27:46.975Z,48.55
2018-09-20T21:30:15.171Z,49.92
2018-09-20T21:32:43.414Z,48.87
2018-09-20T21:35:11.647Z,49.56
2018-09-20T21:37:40.147Z,48.48
2018-09-20T21:40:08.415Z,49.75
2018-09-20T21:42:36.646Z,49.15
2018-09-20T21:45:04.949Z,49.31
2018-09-20T21:47:33.190Z,49.21
2018-09-20T21:50:01.404Z,49.48
2018-09-20T21:52:29.639Z,49.92
2018-09-20T21:54:57.857Z,50.18
2018-09-20T21:57:26.090Z,49.79
2018-09-20T21:59:54.326Z,49.63
2018-09-20T22:02:27.811Z,50.18
2018-09-20T22:04:56.033Z,51.43
2018-09-20T22:07:24.238Z,51.09
2018-09-20T22:09:52.495Z,50.46
2018-09-20T22:12:20.730Z,50.23
2018-09-20T22:14:48.950Z,50.19
2018-09-20T22:17:17.181Z,51.12
2018-09-20T22:19:45.462Z,50.03
2018-09-20T22:22:13.698Z,50.26
2018-09-20T22:24:41.943Z,50.02
2018-09-20T22:27:10.147Z,50.36
2018-09-20T22:29:38.358Z,50.85
2018-09-20T22:32:06.617Z,50.17
2018-09-20T22:34:34.838Z,50.65
2018-09-20T22:37:03.057Z,51.42
2018-09-20T22:39:31.317Z,50.71
2018-09-20T22:41:59.502Z,50.68
2018-09-20T22:44:27.765Z,51.45
2018-09-20T22:46:55.969Z,51.12
2018-09-20T22:49:24.226Z,51.27
2018-09-20T22:51:52.469Z,51.62
2018-09-20T22:54:20.685Z,50.80
2018-09-20T22:56:48.932Z,51.74
2018-09-20T22:59:17.181Z,51.74
2018-09-20T23:01:45.406Z,51.57
2018-09-20T23:04:15.461Z,51.48
2018-09-20T23:06:43.681Z,51.17
2018-09-20T23:09:12.099Z,51.42
2018-09-20T23:11:41.014Z,51.51
2018-09-20T23:14:10.911Z,52.51
2018-09-20T23:16:39.201Z,51.58
2018-09-20T23:19:07.554Z,51.63
2018-09-20T23:21:35.802Z,52.13
2018-09-20T23:24:04.034Z,52.90
2018-09-20T23:26:32.258Z,51.83
2018-09-20T23:29:00.518Z,52.78
2018-09-20T23:31:28.729Z,53.41
2018-09-20T23:33:56.964Z,53.04
2018-09-20T23:36:25.222Z,53.24
2018-09-20T23:38:53.461Z,52.70
2018-09-20T23:41:21.686Z,53.57
2018-09-20T23:43:49.923Z,53.53
2018-09-20T23:46:18.159Z,53.15
2018-09-20T23:48:46.442Z,53.07
2018-09-20T23:51:14.925Z,53.70
2018-09-20T23:53:43.191Z,54.07
2018-09-20T23:56:11.434Z,54.81
2018-09-20T23:58:39.724Z,54.38
